createdAt,value
2019-05-30T00:00:05.731Z,10.40
2019-05-30T00:02:21.994Z,10.40
2019-05-30T00:04:54.117Z,10.40
2019-05-30T00:07:25.223Z,10.40
2019-05-30T00:09:56.299Z,10.30
2019-05-30T00:12:34.209Z,10.30
2019-05-30T00:15:05.897Z,10.30
2019-05-30T00:17:37.082Z,10.20
2019-05-30T00:20:09.433Z,10.30
2019-05-30T00:22:42.945Z,10.20
2019-05-30T00:25:16.783Z,10.20
2019-05-30T00:27:49.736Z,10.20
2019-05-30T00:30:24.753Z,10.20
2019-05-30T00:32:53.942Z,10.20
2019-05-30T00:35:24.838Z,10.10
2019-05-30T00:37:55.631Z,10.00
2019-05-30T00:40:25.806Z,10.00
2019-05-30T00:42:57.807Z,10.00
2019-05-30T00:45:28.978Z,10.00
2019-05-30T00:48:00.042Z,10.00
2019-05-30T00:50:30.019Z,10.00
2019-05-30T00:53:02.911Z,10.00
2019-05-30T00:55:35.854Z,10.00
2019-05-30T00:58:07.508Z,10.00
2019-05-30T01:00:43.587Z,10.00
2019-05-30T01:03:10.617Z,9.90
2019-05-30T01:05:41.860Z,9.90
2019-05-30T01:08:14.712Z,9.90
2019-05-30T01:10:44.754Z,9.80
2019-05-30T01:13:17.059Z,9.80
2019-05-30T01:15:56.860Z,9.70
2019-05-30T01:18:28.049Z,9.70
2019-05-30T01:20:59.156Z,9.70
2019-05-30T01:23:31.851Z,9.70
2019-05-30T01:26:05.472Z,9.70
2019-05-30T01:28:39.395Z,9.70
2019-05-30T01:31:11.114Z,9.80
2019-05-30T01:33:45.650Z,9.70
2019-05-30T01:36:16.857Z,9.60
2019-05-30T01:38:48.000Z,9.50
2019-05-30T01:41:24.001Z,9.50
2019-05-30T01:43:56.372Z,9.50
2019-05-30T01:46:27.569Z,9.50
2019-05-30T01:48:58.167Z,9.50
2019-05-30T01:51:33.412Z,9.50
2019-05-30T01:54:06.614Z,9.40
2019-05-30T01:56:37.572Z,9.40
2019-05-30T01:59:08.901Z,9.30
2019-05-30T02:01:40.365Z,9.30
2019-05-30T02:04:13.108Z,9.30
2019-05-30T02:06:44.454Z,9.30
2019-05-30T02:09:14.402Z,9.30
2019-05-30T02:11:46.697Z,9.20
2019-05-30T02:14:22.831Z,9.20
2019-05-30T02:16:52.702Z,9.20
2019-05-30T02:19:23.681Z,9.20
2019-05-30T02:21:55.094Z,9.10
2019-05-30T02:24:26.106Z,9.10
2019-05-30T02:26:58.350Z,9.20
2019-05-30T02:29:29.255Z,9.20
2019-05-30T02:32:00.827Z,9.10
2019-05-30T02:34:30.802Z,9.10
2019-05-30T02:37:03.435Z,9.10
2019-05-30T02:39:36.076Z,9.10
2019-05-30T02:42:09.409Z,9.10
2019-05-30T02:44:39.535Z,9.00
2019-05-30T02:47:12.152Z,9.00
2019-05-30T02:49:44.742Z,9.00
2019-05-30T02:52:16.071Z,9.00
2019-05-30T02:54:47.114Z,9.00
2019-05-30T02:57:18.171Z,9.00
2019-05-30T02:59:48.035Z,9.00
2019-05-30T03:02:18.610Z,9.00
2019-05-30T03:04:52.637Z,9.00
2019-05-30T03:07:26.077Z,9.00
2019-05-30T03:09:59.173Z,9.00
2019-05-30T03:12:31.630Z,8.90
2019-05-30T03:15:02.567Z,9.00
2019-05-30T03:17:35.579Z,9.00
2019-05-30T03:20:17.985Z,9.00
2019-05-30T03:22:40.313Z,8.90
2019-05-30T03:25:16.145Z,8.90
2019-05-30T03:27:46.516Z,9.00
2019-05-30T03:30:26.735Z,8.90
2019-05-30T03:33:24.650Z,8.90
2019-05-30T03:35:29.314Z,8.90
2019-05-30T03:37:55.546Z,8.90
2019-05-30T03:40:28.233Z,8.90
2019-05-30T03:42:58.091Z,9.00
2019-05-30T03:48:04.287Z,8.90
2019-05-30T03:50:38.446Z,9.00
2019-05-30T03:53:13.803Z,9.00
2019-05-30T03:55:46.447Z,9.00
2019-05-30T03:58:32.229Z,9.00
2019-05-30T04:01:08.288Z,9.00
2019-05-30T04:04:06.435Z,9.10
2019-05-30T04:06:49.655Z,9.20
2019-05-30T04:09:25.185Z,9.20
2019-05-30T04:12:19.991Z,9.30
2019-05-30T04:14:53.146Z,9.40
2019-05-30T04:17:23.073Z,9.40
2019-05-30T04:20:20.546Z,9.50
2019-05-30T04:22:47.678Z,9.60
2019-05-30T04:25:18.555Z,9.70
2019-05-30T04:27:49.876Z,9.80
2019-05-30T04:30:20.866Z,9.90
2019-05-30T04:33:15.733Z,10.00
2019-05-30T04:35:28.057Z,10.10
2019-05-30T04:37:58.988Z,10.20
2019-05-30T04:40:31.552Z,10.30
2019-05-30T04:43:02.406Z,10.50
2019-05-30T04:45:33.618Z,10.70
2019-05-30T04:48:07.333Z,10.80
2019-05-30T04:50:36.670Z,11.00
2019-05-30T04:53:07.819Z,11.30
2019-05-30T04:55:40.730Z,11.50
2019-05-30T04:58:13.348Z,11.60
2019-05-30T05:00:46.379Z,11.80
2019-05-30T05:03:43.443Z,11.90
2019-05-30T05:05:55.443Z,12.10
2019-05-30T05:08:44.787Z,12.40
2019-05-30T05:11:18.655Z,12.50
2019-05-30T05:13:49.340Z,12.70
2019-05-30T05:16:31.341Z,12.90
2019-05-30T05:18:53.225Z,12.90
2019-05-30T05:21:25.452Z,13.10
2019-05-30T05:23:56.827Z,13.30
2019-05-30T05:26:25.858Z,13.40
2019-05-30T05:28:58.581Z,13.60
2019-05-30T05:33:59.675Z,13.90
2019-05-30T05:36:31.125Z,14.00
2019-05-30T05:39:02.546Z,13.90
2019-05-30T05:41:33.660Z,14.10
2019-05-30T05:44:04.855Z,14.30
2019-05-30T05:46:36.834Z,14.40
2019-05-30T05:49:08.267Z,14.70
2019-05-30T05:51:41.395Z,14.70
2019-05-30T05:54:14.574Z,14.90
2019-05-30T05:56:47.791Z,15.20
2019-05-30T05:59:20.952Z,15.40
2019-05-30T06:01:52.794Z,15.70
2019-05-30T06:04:25.353Z,15.90
2019-05-30T06:06:58.299Z,15.80
2019-05-30T06:09:28.765Z,15.90
2019-05-30T06:12:01.343Z,16.00
2019-05-30T06:14:32.279Z,16.20
2019-05-30T06:17:03.715Z,16.50
2019-05-30T06:19:46.060Z,16.60
2019-05-30T06:22:29.495Z,16.60
2019-05-30T06:24:59.516Z,16.80
2019-05-30T06:27:30.691Z,17.00
2019-05-30T06:30:04.534Z,17.20
2019-05-30T06:32:35.890Z,17.50
2019-05-30T06:35:09.692Z,17.70
2019-05-30T06:37:40.825Z,18.00
2019-05-30T06:40:14.341Z,18.10
2019-05-30T06:42:47.689Z,18.10
2019-05-30T06:45:23.643Z,18.20
2019-05-30T06:47:53.917Z,18.20
2019-05-30T06:50:25.325Z,18.30
2019-05-30T06:52:56.770Z,18.10
2019-05-30T06:55:27.281Z,18.10
2019-05-30T06:57:57.096Z,18.30
2019-05-30T07:00:28.103Z,18.70
2019-05-30T07:03:00.444Z,18.80
2019-05-30T07:05:32.246Z,18.90
2019-05-30T07:08:05.178Z,19.00
2019-05-30T07:10:36.632Z,18.90
2019-05-30T07:13:07.548Z,18.90
2019-05-30T07:15:37.504Z,19.10
2019-05-30T07:18:09.098Z,19.30
2019-05-30T07:20:40.606Z,19.30
2019-05-30T07:23:12.993Z,19.50
2019-05-30T07:25:46.395Z,19.50
2019-05-30T07:28:23.708Z,19.60
2019-05-30T07:30:55.349Z,19.70
2019-05-30T07:36:00.450Z,19.70
2019-05-30T07:38:32.532Z,19.60
2019-05-30T07:41:05.439Z,19.70
2019-05-30T07:43:36.322Z,19.70
2019-05-30T07:46:07.770Z,19.90
2019-05-30T07:48:38.588Z,20.00
2019-05-30T07:51:10.194Z,20.30
2019-05-30T07:53:42.687Z,20.50
2019-05-30T07:56:15.425Z,20.60
2019-05-30T07:58:46.841Z,20.50
2019-05-30T08:01:19.397Z,20.50
2019-05-30T08:03:52.598Z,20.60
2019-05-30T08:06:27.408Z,20.40
2019-05-30T08:09:02.202Z,20.40
2019-05-30T08:11:35.123Z,20.60
2019-05-30T08:14:07.544Z,20.90
2019-05-30T08:16:40.332Z,21.00
2019-05-30T08:19:22.137Z,20.80
2019-05-30T08:21:51.170Z,20.80
2019-05-30T08:24:22.522Z,20.90
2019-05-30T08:26:53.746Z,21.10
2019-05-30T08:29:28.068Z,21.10
2019-05-30T08:31:58.259Z,21.40
2019-05-30T08:34:32.876Z,21.60
2019-05-30T08:37:04.096Z,21.60
2019-05-30T08:39:35.298Z,21.50
2019-05-30T08:42:07.277Z,21.70
2019-05-30T08:44:38.142Z,21.50
2019-05-30T08:47:11.200Z,21.30
2019-05-30T08:49:42.454Z,21.20
2019-05-30T08:52:15.459Z,21.30
2019-05-30T08:54:46.440Z,21.50
2019-05-30T08:57:17.659Z,21.60
2019-05-30T08:59:48.171Z,22.00
2019-05-30T09:02:21.706Z,22.00
2019-05-30T09:04:56.156Z,22.00
2019-05-30T09:07:27.187Z,21.90
2019-05-30T09:09:57.588Z,22.00
2019-05-30T09:12:28.791Z,22.10
2019-05-30T09:15:02.302Z,22.20
2019-05-30T09:17:33.535Z,22.30
2019-05-30T09:20:08.030Z,22.10
2019-05-30T09:22:39.805Z,22.50
2019-05-30T09:25:13.688Z,22.30
2019-05-30T09:27:45.203Z,22.30
2019-05-30T09:30:19.136Z,22.20
2019-05-30T09:32:50.398Z,22.30
2019-05-30T09:35:23.409Z,22.40
2019-05-30T09:37:57.441Z,22.60
2019-05-30T09:40:28.224Z,22.70
2019-05-30T09:42:58.229Z,22.60
2019-05-30T09:45:29.891Z,22.60
2019-05-30T09:48:02.665Z,22.50
2019-05-30T09:50:34.872Z,22.80
2019-05-30T09:53:06.257Z,22.90
2019-05-30T09:55:36.177Z,22.80
2019-05-30T09:58:09.592Z,23.00
2019-05-30T10:00:42.876Z,23.00
2019-05-30T10:03:12.795Z,22.80
2019-05-30T10:05:45.141Z,22.60
2019-05-30T10:08:17.415Z,22.70
2019-05-30T10:10:49.593Z,22.80
2019-05-30T10:13:23.407Z,22.90
2019-05-30T10:15:56.633Z,22.70
2019-05-30T10:18:30.652Z,23.00
2019-05-30T10:21:02.180Z,23.30
2019-05-30T10:23:33.207Z,23.40
2019-05-30T10:26:06.277Z,23.60
2019-05-30T10:28:36.318Z,23.50
2019-05-30T10:31:08.532Z,23.30
2019-05-30T10:33:37.914Z,23.00
2019-05-30T10:36:14.424Z,23.30
2019-05-30T10:38:42.842Z,23.00
2019-05-30T10:41:14.385Z,23.00
2019-05-30T10:43:47.450Z,23.00
2019-05-30T10:46:17.617Z,23.00
2019-05-30T10:48:49.134Z,23.20
2019-05-30T10:51:22.039Z,23.30
2019-05-30T10:53:57.788Z,23.30
2019-05-30T10:56:32.207Z,23.00
2019-05-30T10:59:06.177Z,23.00
2019-05-30T11:01:41.019Z,23.10
2019-05-30T11:04:12.239Z,23.20
2019-05-30T11:07:11.323Z,23.10
2019-05-30T11:09:42.831Z,22.60
2019-05-30T11:12:13.072Z,23.00
2019-05-30T11:14:43.674Z,23.20
2019-05-30T11:17:15.681Z,23.20
2019-05-30T11:19:49.873Z,23.30
2019-05-30T11:22:21.302Z,23.60
2019-05-30T11:25:12.138Z,23.70
2019-05-30T11:27:45.107Z,23.80
2019-05-30T11:30:18.470Z,24.10
2019-05-30T11:32:52.971Z,24.20
2019-05-30T11:35:26.747Z,24.20
2019-05-30T11:37:57.309Z,24.30
2019-05-30T11:40:29.850Z,24.20
2019-05-30T11:43:01.223Z,24.10
2019-05-30T11:45:32.527Z,24.30
2019-05-30T11:48:24.365Z,24.40
2019-05-30T11:50:57.956Z,24.20
2019-05-30T11:53:30.489Z,24.20
2019-05-30T11:56:03.006Z,24.20
2019-05-30T11:58:34.317Z,24.00
2019-05-30T12:01:06.341Z,24.10
2019-05-30T12:06:12.999Z,23.60
2019-05-30T12:08:43.891Z,23.30
2019-05-30T12:11:15.040Z,23.00
2019-05-30T12:13:44.457Z,22.90
2019-05-30T12:16:15.927Z,22.80
2019-05-30T12:18:47.868Z,22.40
2019-05-30T12:21:20.443Z,22.40
2019-05-30T12:23:54.462Z,22.00
2019-05-30T12:26:24.496Z,21.70
2019-05-30T12:28:55.957Z,21.30
2019-05-30T12:31:26.038Z,21.20
2019-05-30T12:33:58.489Z,21.30
2019-05-30T12:36:29.700Z,21.00
2019-05-30T12:39:00.804Z,20.80
2019-05-30T12:41:34.459Z,20.70
2019-05-30T12:44:06.951Z,20.60
2019-05-30T12:46:36.958Z,20.60
2019-05-30T12:49:10.045Z,20.50
2019-05-30T12:51:43.183Z,20.40
2019-05-30T12:54:13.909Z,20.40
2019-05-30T12:56:44.035Z,20.50
2019-05-30T12:59:16.267Z,20.30
2019-05-30T13:01:47.562Z,20.10
2019-05-30T13:04:19.765Z,20.00
2019-05-30T13:06:54.248Z,20.00
2019-05-30T13:09:27.311Z,19.90
2019-05-30T13:12:01.093Z,20.00
2019-05-30T13:14:30.982Z,19.90
2019-05-30T13:17:01.841Z,19.90
2019-05-30T13:19:35.671Z,19.70
2019-05-30T13:22:07.712Z,19.70
2019-05-30T13:24:42.108Z,19.70
2019-05-30T13:27:14.471Z,19.60
2019-05-30T13:29:45.610Z,19.60
2019-05-30T13:32:20.894Z,19.60
2019-05-30T13:34:53.864Z,19.60
2019-05-30T13:37:23.831Z,19.50
2019-05-30T13:39:54.674Z,19.40
2019-05-30T13:42:25.843Z,19.40
2019-05-30T13:44:57.771Z,19.40
2019-05-30T13:47:29.165Z,19.40
2019-05-30T13:50:02.991Z,19.40
2019-05-30T13:52:37.790Z,19.30
2019-05-30T13:55:13.373Z,19.30
2019-05-30T13:57:43.526Z,19.30
2019-05-30T14:00:17.793Z,19.40
2019-05-30T14:02:50.379Z,19.30
2019-05-30T14:05:21.382Z,19.30
2019-05-30T14:07:55.124Z,19.30
2019-05-30T14:10:26.555Z,19.20
2019-05-30T14:12:58.387Z,19.20
2019-05-30T14:15:29.656Z,19.00
2019-05-30T14:20:34.707Z,19.10
2019-05-30T14:23:07.361Z,19.10
2019-05-30T14:25:38.874Z,19.10
2019-05-30T14:28:12.120Z,19.20
2019-05-30T14:30:43.736Z,19.20
2019-05-30T14:33:15.771Z,19.20
2019-05-30T14:35:49.195Z,19.20
2019-05-30T14:38:22.178Z,19.20
2019-05-30T14:40:52.166Z,19.20
2019-05-30T14:43:25.520Z,19.20
2019-05-30T14:45:58.585Z,19.30
2019-05-30T14:48:30.074Z,19.30
2019-05-30T14:51:02.850Z,19.20
2019-05-30T14:53:36.372Z,19.20
2019-05-30T14:56:09.079Z,19.20
2019-05-30T14:58:40.302Z,19.20
2019-05-30T15:01:13.393Z,19.30
2019-05-30T15:03:43.577Z,19.30
2019-05-30T15:06:17.721Z,19.40
2019-05-30T15:08:51.608Z,19.30
2019-05-30T15:11:24.057Z,19.20
2019-05-30T15:13:53.944Z,19.10
2019-05-30T15:16:27.592Z,19.10
2019-05-30T15:18:59.916Z,19.20
2019-05-30T15:21:34.971Z,19.30
2019-05-30T15:24:07.742Z,19.50
2019-05-30T15:26:39.051Z,19.50
2019-05-30T15:29:10.404Z,19.40
2019-05-30T15:31:43.158Z,19.30
2019-05-30T15:34:15.309Z,19.30
2019-05-30T15:36:49.867Z,19.30
2019-05-30T15:39:32.232Z,19.20
2019-05-30T15:41:55.418Z,19.20
2019-05-30T15:44:26.555Z,19.10
2019-05-30T15:47:00.838Z,19.10
2019-05-30T15:49:35.751Z,19.10
2019-05-30T15:52:06.247Z,19.20
2019-05-30T15:54:39.175Z,19.20
2019-05-30T15:57:11.134Z,19.20
2019-05-30T15:59:42.223Z,19.10
2019-05-30T16:02:16.112Z,19.10
2019-05-30T16:04:51.725Z,19.10
2019-05-30T16:07:24.034Z,19.20
2019-05-30T16:09:55.656Z,19.20
2019-05-30T16:12:24.673Z,19.20
2019-05-30T16:14:59.381Z,19.20
2019-05-30T16:17:32.225Z,19.30
2019-05-30T16:20:06.151Z,19.30
2019-05-30T16:22:37.973Z,19.30
2019-05-30T16:25:11.064Z,19.20
2019-05-30T16:27:43.612Z,19.10
2019-05-30T16:30:19.720Z,19.10
2019-05-30T16:32:48.744Z,19.10
2019-05-30T16:35:22.245Z,19.10
2019-05-30T16:37:53.579Z,19.10
2019-05-30T16:40:22.901Z,19.10
2019-05-30T16:42:54.903Z,19.20
2019-05-30T16:45:26.765Z,19.10
2019-05-30T16:47:57.479Z,19.00
2019-05-30T16:50:29.216Z,18.90
2019-05-30T16:53:02.003Z,18.80
2019-05-30T16:55:31.989Z,18.70
2019-05-30T16:58:02.033Z,18.70
2019-05-30T17:00:36.391Z,18.60
2019-05-30T17:03:07.911Z,18.50
2019-05-30T17:05:42.667Z,18.50
2019-05-30T17:08:16.011Z,18.50
2019-05-30T17:10:49.154Z,18.50
2019-05-30T17:13:19.624Z,18.40
2019-05-30T17:15:51.161Z,18.40
2019-05-30T17:18:24.347Z,18.30
2019-05-30T17:20:56.546Z,18.20
2019-05-30T17:23:29.440Z,18.30
2019-05-30T17:26:03.830Z,18.20
2019-05-30T17:28:35.148Z,18.20
2019-05-30T17:31:07.946Z,18.20
2019-05-30T17:33:39.487Z,18.10
2019-05-30T17:36:09.498Z,18.10
2019-05-30T17:38:41.801Z,18.10
2019-05-30T17:41:14.373Z,18.10
2019-05-30T17:43:45.298Z,18.00
2019-05-30T17:46:16.520Z,18.00
2019-05-30T17:48:50.893Z,17.90
2019-05-30T17:51:21.946Z,17.80
2019-05-30T17:53:53.183Z,17.90
2019-05-30T17:56:23.970Z,17.80
2019-05-30T17:58:55.024Z,17.80
2019-05-30T18:01:28.345Z,17.70
2019-05-30T18:03:57.791Z,17.60
2019-05-30T18:06:29.371Z,17.60
2019-05-30T18:09:02.909Z,17.60
2019-05-30T18:11:32.976Z,17.60
2019-05-30T18:14:07.036Z,17.50
2019-05-30T18:16:38.643Z,17.40
2019-05-30T18:19:11.549Z,17.40
2019-05-30T18:21:41.606Z,17.30
2019-05-30T18:24:14.295Z,17.20
2019-05-30T18:26:51.543Z,17.10
2019-05-30T18:31:54.634Z,17.00
2019-05-30T18:34:28.282Z,16.90
2019-05-30T18:37:04.636Z,16.90
2019-05-30T18:39:34.455Z,16.70
2019-05-30T18:42:04.301Z,16.70
2019-05-30T18:44:39.009Z,16.60
2019-05-30T18:47:11.469Z,16.50
2019-05-30T18:49:41.517Z,16.40
2019-05-30T18:52:12.720Z,16.40
2019-05-30T18:54:46.301Z,16.30
2019-05-30T18:57:17.267Z,16.20
2019-05-30T18:59:50.070Z,16.20
2019-05-30T19:02:21.144Z,16.00
2019-05-30T19:04:52.085Z,15.80
2019-05-30T19:07:26.575Z,15.70
2019-05-30T19:09:58.694Z,15.60
2019-05-30T19:12:34.274Z,15.50
2019-05-30T19:15:13.512Z,15.50
2019-05-30T19:17:46.230Z,15.40
2019-05-30T19:20:18.340Z,15.30
2019-05-30T19:22:50.601Z,15.20
2019-05-30T19:25:20.526Z,15.10
2019-05-30T19:27:52.643Z,15.00
2019-05-30T19:30:26.433Z,15.00
2019-05-30T19:33:00.672Z,14.90
2019-05-30T19:35:33.176Z,14.90
2019-05-30T19:38:06.517Z,14.80
2019-05-30T19:40:38.016Z,14.60
2019-05-30T19:43:08.287Z,14.60
2019-05-30T19:45:41.381Z,14.50
2019-05-30T19:48:16.493Z,14.40
2019-05-30T19:50:47.363Z,14.30
2019-05-30T19:53:19.819Z,14.20
2019-05-30T19:55:53.731Z,14.20
2019-05-30T19:58:23.661Z,14.10
2019-05-30T20:00:58.321Z,14.00
2019-05-30T20:03:36.251Z,13.90
2019-05-30T20:06:00.410Z,13.90
2019-05-30T20:08:46.953Z,13.80
2019-05-30T20:11:05.087Z,13.70
2019-05-30T20:13:39.197Z,13.60
2019-05-30T20:16:13.623Z,13.60
2019-05-30T20:18:43.772Z,13.50
2019-05-30T20:21:14.794Z,13.50
2019-05-30T20:23:54.539Z,13.40
2019-05-30T20:26:20.299Z,13.20
2019-05-30T20:28:52.093Z,13.20
2019-05-30T20:31:23.470Z,13.20
2019-05-30T20:33:54.587Z,13.20
2019-05-30T20:36:27.789Z,13.10
2019-05-30T20:39:00.987Z,13.00
2019-05-30T20:41:32.217Z,12.90
2019-05-30T20:44:05.857Z,12.90
2019-05-30T20:46:37.061Z,12.90
2019-05-30T20:49:09.124Z,12.80
2019-05-30T20:51:41.207Z,12.70
2019-05-30T20:54:11.329Z,12.70
2019-05-30T20:56:42.166Z,12.70
2019-05-30T20:59:13.317Z,12.60
2019-05-30T21:01:44.283Z,12.50
2019-05-30T21:04:16.684Z,12.40
2019-05-30T21:06:50.902Z,12.40
2019-05-30T21:09:28.772Z,12.30
2019-05-30T21:11:55.363Z,12.30
2019-05-30T21:14:27.814Z,12.20
2019-05-30T21:17:00.223Z,12.20
2019-05-30T21:19:31.312Z,12.10
2019-05-30T21:22:01.176Z,12.10
2019-05-30T21:24:32.015Z,12.10
2019-05-30T21:27:05.311Z,12.00
2019-05-30T21:29:35.216Z,11.90
2019-05-30T21:32:08.810Z,11.90
2019-05-30T21:34:42.424Z,11.90
2019-05-30T21:37:14.431Z,11.90
2019-05-30T21:39:48.104Z,11.80
2019-05-30T21:42:19.403Z,11.80
2019-05-30T21:44:52.375Z,11.80
2019-05-30T21:47:24.292Z,11.70
2019-05-30T21:49:56.898Z,11.60
2019-05-30T21:52:35.362Z,11.50
2019-05-30T21:55:06.274Z,11.50
2019-05-30T21:57:39.831Z,11.50
2019-05-30T22:00:14.108Z,11.40
2019-05-30T22:02:48.655Z,11.40
2019-05-30T22:05:22.414Z,11.40
2019-05-30T22:07:55.959Z,11.30
2019-05-30T22:10:26.003Z,11.30
2019-05-30T22:13:08.971Z,11.30
2019-05-30T22:15:27.905Z,11.20
2019-05-30T22:18:00.360Z,11.30
2019-05-30T22:23:02.391Z,11.20
2019-05-30T22:25:33.439Z,11.10
2019-05-30T22:28:10.615Z,11.10
2019-05-30T22:30:42.292Z,11.00
2019-05-30T22:33:13.245Z,10.90
2019-05-30T22:38:18.681Z,10.90
2019-05-30T22:40:50.035Z,10.70
2019-05-30T22:43:25.273Z,10.70
2019-05-30T22:45:55.364Z,10.70
2019-05-30T22:48:26.799Z,10.60
2019-05-30T22:50:58.043Z,10.60
2019-05-30T22:53:31.576Z,10.50
2019-05-30T22:56:02.490Z,10.30
2019-05-30T22:58:32.649Z,10.20
2019-05-30T23:01:04.863Z,10.10
2019-05-30T23:03:37.543Z,10.10
2019-05-30T23:06:09.911Z,10.10
2019-05-30T23:08:39.818Z,10.20
2019-05-30T23:11:14.277Z,10.20
2019-05-30T23:13:47.894Z,10.20
2019-05-30T23:16:19.013Z,10.20
2019-05-30T23:18:52.574Z,10.30
2019-05-30T23:21:25.610Z,10.30
2019-05-30T23:23:57.290Z,10.30
2019-05-30T23:26:28.374Z,10.30
2019-05-30T23:28:59.432Z,10.20
2019-05-30T23:31:33.274Z,10.10
2019-05-30T23:34:06.311Z,10.10
2019-05-30T23:36:39.696Z,10.00
2019-05-30T23:39:10.786Z,10.00
2019-05-30T23:41:41.760Z,10.00
2019-05-30T23:44:12.465Z,9.90
2019-05-30T23:46:42.402Z,9.90
2019-05-30T23:49:15.298Z,9.80
2019-05-30T23:51:46.226Z,9.70
2019-05-30T23:54:16.712Z,9.70
2019-05-30T23:56:47.871Z,9.60
2019-05-30T23:59:21.029Z,9.60
